createdAt,value
2022-08-26T19:31:02.102Z,19.27
2022-08-26T19:33:29.297Z,19.62
2022-08-26T19:35:56.254Z,19.73
2022-08-26T19:38:22.823Z,19.83
2022-08-26T19:40:49.337Z,19.85
2022-08-26T19:43:15.869Z,20.01
2022-08-26T19:45:43.546Z,20.10
2022-08-26T19:48:10.263Z,20.20
2022-08-26T19:50:36.826Z,20.27
2022-08-26T19:53:03.548Z,20.35
2022-08-26T19:55:30.783Z,20.42
2022-08-26T19:57:57.360Z,20.45
2022-08-26T20:00:26.569Z,20.56
2022-08-26T20:02:53.688Z,20.61
2022-08-26T20:05:22.907Z,20.44
2022-08-26T20:07:50.010Z,20.72
2022-08-26T20:10:18.874Z,20.43
2022-08-26T20:12:45.381Z,20.79
2022-08-26T20:15:13.028Z,20.84
2022-08-26T20:17:40.452Z,20.85
2022-08-26T20:20:13.296Z,20.90
2022-08-26T20:22:56.671Z,20.93
2022-08-26T20:25:23.549Z,20.96
2022-08-26T20:27:50.069Z,20.98
2022-08-26T20:30:16.579Z,21.00
2022-08-26T20:32:43.382Z,21.02
2022-08-26T20:35:12.558Z,20.75
2022-08-26T20:37:39.923Z,21.05
2022-08-26T20:40:07.981Z,21.07
2022-08-26T20:42:34.906Z,20.80
2022-08-26T20:45:02.041Z,21.09
2022-08-26T20:47:28.619Z,21.11
2022-08-26T20:49:55.788Z,21.12
2022-08-26T20:52:22.518Z,21.11
2022-08-26T20:54:49.019Z,21.12
2022-08-26T20:57:15.645Z,21.13
2022-08-26T20:59:42.150Z,21.13
2022-08-26T21:02:08.788Z,21.13
2022-08-26T21:04:35.451Z,21.11
2022-08-26T21:07:02.038Z,21.09
2022-08-26T21:09:28.575Z,21.07
2022-08-26T21:11:56.786Z,21.03
2022-08-26T21:14:25.867Z,20.99
2022-08-26T21:16:58.783Z,20.89
2022-08-26T21:19:25.851Z,20.89
2022-08-26T21:21:56.084Z,20.88
2022-08-26T21:24:32.455Z,20.83
2022-08-26T21:27:02.292Z,20.81
2022-08-26T21:29:29.198Z,20.78
2022-08-26T21:31:59.601Z,20.73
2022-08-26T21:34:26.700Z,20.69
2022-08-26T21:36:54.951Z,20.54
2022-08-26T21:39:21.774Z,20.54
2022-08-26T21:41:48.395Z,20.61
2022-08-26T21:44:16.895Z,20.58
2022-08-26T21:46:45.011Z,20.48
2022-08-26T21:49:14.009Z,20.51
2022-08-26T21:51:45.358Z,20.23
2022-08-26T21:54:13.255Z,20.15
2022-08-26T21:56:45.234Z,20.13
2022-08-26T21:59:12.841Z,20.31
2022-08-26T22:01:39.429Z,20.39
2022-08-26T22:04:08.020Z,20.01
2022-08-26T22:06:41.671Z,20.12
2022-08-26T22:09:08.234Z,20.25
2022-08-26T22:11:34.792Z,20.19
2022-08-26T22:14:01.348Z,20.22
2022-08-26T22:16:28.041Z,20.18
2022-08-26T22:18:54.670Z,20.13
2022-08-26T22:21:25.044Z,20.10
2022-08-26T22:23:51.852Z,20.01
2022-08-26T22:26:25.585Z,20.00
2022-08-26T22:28:58.601Z,19.91
2022-08-26T22:31:37.245Z,19.88
2022-08-26T22:34:10.559Z,19.81
2022-08-26T22:36:43.192Z,19.65
2022-08-26T22:39:12.712Z,19.70
2022-08-26T22:41:39.306Z,19.65
2022-08-26T22:44:06.083Z,19.60
2022-08-26T22:46:32.618Z,19.54
2022-08-26T22:48:59.176Z,19.50
2022-08-26T22:51:25.752Z,19.45
2022-08-26T22:53:52.296Z,19.32
2022-08-26T22:56:18.861Z,19.37
2022-08-26T22:58:45.425Z,19.27
2022-08-26T23:01:12.002Z,19.28
2022-08-26T23:03:38.658Z,19.24
2022-08-26T23:06:07.208Z,19.22
2022-08-26T23:08:33.721Z,19.19
2022-08-26T23:11:00.250Z,19.12
2022-08-26T23:13:26.990Z,19.10
2022-08-26T23:16:04.924Z,18.91
2022-08-26T23:18:32.118Z,18.98
2022-08-26T23:20:58.614Z,18.94
2022-08-26T23:23:25.607Z,18.85
2022-08-26T23:25:52.085Z,18.81
2022-08-26T23:28:18.713Z,18.75
2022-08-26T23:30:47.060Z,18.66
2022-08-26T23:33:14.073Z,18.60
2022-08-26T23:35:40.627Z,18.53
2022-08-26T23:38:08.077Z,18.49
2022-08-26T23:40:38.006Z,18.42
2022-08-26T23:43:07.804Z,18.35
2022-08-26T23:45:35.464Z,18.35
2022-08-26T23:48:02.374Z,18.31
2022-08-26T23:50:30.539Z,18.09
2022-08-26T23:52:57.025Z,18.25
2022-08-26T23:55:23.559Z,18.21
2022-08-26T23:57:50.276Z,18.17
